Time,TemperatureF,DewpointF,PressureIn,WindDirection,WindDirectionDegrees,WindSpeedMPH,WindSpeedGustMPH,Humidity,HourlyPrecipIn,Conditions,Clouds,dailyrainin,SoftwareType,DateUTC
2013-04-15 01:16:00,55.8,46.2,29.80,SE,124,5.0,17.0,70,0.00,,---,0.00,VWS V14.01,2013-04-15 05:16:00,
2013-04-15 01:46:00,55.9,45.9,29.80,SSE,160,9.0,13.0,69,0.00,,---,0.00,VWS V14.01,2013-04-15 05:46:00,
2013-04-15 03:46:00,56.2,46.2,29.85,SSW,196,5.0,9.0,69,0.00,,---,0.00,VWS V14.01,2013-04-15 07:46:00,
2013-04-15 04:16:00,56.7,46.7,29.85,SSW,198,10.0,14.0,69,0.00,,---,0.00,VWS V14.01,2013-04-15 08:16:00,
2013-04-15 04:46:00,57.2,47.1,29.85,SSW,194,15.0,22.0,69,0.00,,---,0.00,VWS V14.01,2013-04-15 08:46:00,
2013-04-15 05:01:00,57.6,47.5,29.84,SSW,194,14.0,20.0,69,0.00,,---,0.00,VWS V14.01,2013-04-15 09:01:00,
2013-04-15 05:31:00,57.7,47.6,29.84,SSW,197,6.0,17.0,69,0.00,,---,0.00,VWS V14.01,2013-04-15 09:31:00,
2013-04-15 05:46:00,57.5,47.8,29.83,SSW,195,3.0,17.0,70,0.00,,---,0.00,VWS V14.01,2013-04-15 09:46:00,
2013-04-15 06:01:00,57.4,47.7,29.82,South,191,7.0,15.0,70,0.00,,---,0.00,VWS V14.01,2013-04-15 10:01:00,
2013-04-15 06:46:00,56.3,47.8,29.83,SSW,202,6.0,15.0,73,0.00,,---,0.00,VWS V14.01,2013-04-15 10:46:00,
2013-04-15 07:16:00,55.5,47.7,29.85,SSW,197,7.0,13.0,75,0.00,,---,0.00,VWS V14.01,2013-04-15 11:16:00,
2013-04-15 08:46:00,55.3,48.2,29.88,SSW,202,6.0,9.0,77,0.00,,---,0.00,VWS V14.01,2013-04-15 12:46:00,
2013-04-15 11:01:00,58.2,50.7,29.85,South,180,7.0,21.0,76,0.00,,---,0.01,VWS V14.01,2013-04-15 15:01:00,
2013-04-15 11:16:00,58.6,51.1,29.86,SSW,198,9.0,18.0,76,0.00,,---,0.01,VWS V14.01,2013-04-15 15:16:00,
2013-04-15 11:31:00,59.0,51.5,29.86,South,176,5.0,19.0,76,0.00,,---,0.01,VWS V14.01,2013-04-15 15:31:00,
2013-04-15 11:46:00,59.5,51.9,29.87,SSW,213,4.0,18.0,76,0.00,,---,0.01,VWS V14.01,2013-04-15 15:46:00,
2013-04-15 12:31:00,59.9,52.7,29.89,SSW,198,7.0,14.0,77,0.00,,---,0.01,VWS V14.01,2013-04-15 16:31:00,
2013-04-15 13:01:00,60.1,53.2,29.89,SSW,196,6.0,15.0,78,0.00,,---,0.01,VWS V14.01,2013-04-15 17:01:00,
2013-04-15 13:46:00,60.4,53.5,29.87,SW,215,8.0,13.0,78,0.00,,---,0.01,VWS V14.01,2013-04-15 17:46:00,
2013-04-15 14:01:00,60.4,53.9,29.86,SE,135,5.0,13.0,79,0.00,,---,0.01,VWS V14.01,2013-04-15 18:01:00,
2013-04-15 14:16:00,60.7,54.2,29.87,SSW,192,4.0,14.0,79,0.00,,---,0.01,VWS V14.01,2013-04-15 18:16:00,
2013-04-15 14:31:00,60.8,54.3,29.87,South,186,6.0,17.0,79,0.00,,---,0.01,VWS V14.01,2013-04-15 18:31:00,
2013-04-15 14:46:00,60.9,54.3,29.86,SSW,201,6.0,12.0,79,0.00,,---,0.01,VWS V14.01,2013-04-15 18:46:00,
2013-04-15 15:16:00,61.8,54.9,29.84,South,190,1.0,13.0,78,0.00,,---,0.01,VWS V14.01,2013-04-15 19:16:00,
2013-04-15 15:31:00,62.8,55.5,29.85,SSW,196,4.0,14.0,77,0.00,,---,0.01,VWS V14.01,2013-04-15 19:31:00,
2013-04-15 15:46:00,63.8,55.7,29.85,SSW,207,8.0,12.0,75,0.00,,---,0.01,VWS V14.01,2013-04-15 19:46:00,
2013-04-15 16:01:00,63.6,55.5,29.85,SE,136,8.0,16.0,75,0.00,,---,0.01,VWS V14.01,2013-04-15 20:01:00,
2013-04-15 16:16:00,62.7,55.4,29.86,SSW,202,8.0,18.0,77,0.00,,---,0.01,VWS V14.01,2013-04-15 20:16:00,
2013-04-15 16:31:00,62.3,55.0,29.86,SSW,207,6.0,15.0,77,0.00,,---,0.01,VWS V14.01,2013-04-15 20:31:00,
2013-04-15 16:46:00,62.4,55.5,29.87,SSW,200,5.0,13.0,78,0.00,,---,0.01,VWS V14.01,2013-04-15 20:46:00,
2013-04-15 17:16:00,61.5,55.3,29.88,SSW,196,7.0,14.0,80,0.00,,---,0.01,VWS V14.01,2013-04-15 21:16:00,
2013-04-15 17:31:00,61.2,55.7,29.87,SW,219,5.0,8.0,82,0.00,,---,0.01,VWS V14.01,2013-04-15 21:31:00,
2013-04-15 18:01:00,60.7,55.8,29.86,SSW,198,3.0,7.0,84,0.00,,---,0.01,VWS V14.01,2013-04-15 22:01:00,
2013-04-15 18:16:00,60.0,56.1,29.87,SSW,210,0.0,6.0,87,0.00,,---,0.01,VWS V14.01,2013-04-15 22:16:00,
2013-04-15 18:31:00,59.6,56.0,29.86,SSW,210,0.0,4.0,88,0.00,,---,0.01,VWS V14.01,2013-04-15 22:31:00,
2013-04-15 18:46:00,59.1,56.2,29.88,SSW,210,0.0,3.0,90,0.00,,---,0.01,VWS V14.01,2013-04-15 22:46:00,
2013-04-15 19:01:00,58.7,56.1,29.88,SSW,210,0.0,1.0,91,0.00,,---,0.01,VWS V14.01,2013-04-15 23:01:00,
2013-04-15 19:16:00,58.4,56.1,29.87,SSW,210,1.0,3.0,92,0.00,,---,0.01,VWS V14.01,2013-04-15 23:16:00,
2013-04-15 19:31:00,58.1,56.1,29.88,SSW,208,0.0,6.0,93,0.01,,---,0.02,VWS V14.01,2013-04-15 23:31:00,
2013-04-15 19:46:00,57.9,55.9,29.89,SSW,208,0.0,4.0,93,0.01,,---,0.02,VWS V14.01,2013-04-15 23:46:00,
2013-04-15 20:01:00,57.6,55.9,29.90,West,277,6.0,9.0,94,0.01,,---,0.02,VWS V14.01,2013-04-16 00:01:00,
2013-04-15 20:16:00,56.9,55.2,29.89,WNW,289,3.0,7.0,94,0.01,,---,0.02,VWS V14.01,2013-04-16 00:16:00,
2013-04-15 20:31:00,56.5,55.1,29.89,WNW,289,0.0,5.0,95,0.01,,---,0.02,VWS V14.01,2013-04-16 00:31:00,
2013-04-15 20:46:00,56.3,54.9,29.88,WNW,289,0.0,0.0,95,0.00,,---,0.02,VWS V14.01,2013-04-16 00:46:00,
2013-04-15 21:01:00,56.0,54.6,29.88,NNE,22,2.0,4.0,95,0.00,,---,0.02,VWS V14.01,2013-04-16 01:01:00,
2013-04-15 21:31:00,51.5,49.8,29.89,NNW,338,4.0,7.0,94,0.00,,---,0.02,VWS V14.01,2013-04-16 01:31:00,
2013-04-15 21:46:00,50.8,49.1,29.90,North,355,0.0,8.0,94,0.00,,---,0.02,VWS V14.01,2013-04-16 01:46:00,
2013-04-15 22:01:00,49.7,48.0,29.91,North,5,3.0,8.0,94,0.00,,---,0.02,VWS V14.01,2013-04-16 02:01:00,
2013-04-15 22:16:00,48.7,47.0,29.92,West,281,9.0,11.0,94,0.00,,---,0.02,VWS V14.01,2013-04-16 02:16:00,
2013-04-15 23:01:00,45.4,43.8,29.94,NNE,13,7.0,9.0,94,0.00,,---,0.02,VWS V14.01,2013-04-16 03:01:00,
2013-04-15 23:31:00,44.8,43.2,29.94,NNE,13,4.0,9.0,94,0.00,,---,0.02,VWS V14.01,2013-04-16 03:31:00,
2013-04-15 23:46:00,44.7,43.1,29.95,WNW,296,5.0,8.0,94,0.00,,---,0.02,VWS V14.01,2013-04-16 03:46:00,